Time;durP1;ratioP1;P1;durP2;ratioP2;P2;SDS_P1;SDS_P2;PMS_P1;PMS_P2;Temp;Humidity;BMP_temperature;BMP_pressure;BME280_temperature;BME280_humidity;BME280_pressure;Samples;Min_cycle;Max_cycle;Signal;HPM_P1;HPM_P2
2023/06/18 00:02:03;;;;;;;15.05;10.98;;;18.30;99.90;;;;;;5030391;28;20028;-71
2023/06/18 00:04:30;;;;;;;12.52;10.23;;;18.20;99.90;;;;;;5015384;28;20045;-71
2023/06/18 00:06:56;;;;;;;12.25;10.70;;;18.20;99.90;;;;;;5030781;28;20021;-71
2023/06/18 00:09:22;;;;;;;12.05;10.85;;;18.20;99.90;;;;;;5030971;28;20562;-71
2023/06/18 00:11:49;;;;;;;13.25;10.23;;;18.20;99.90;;;;;;5014511;28;20094;-72
2023/06/18 00:14:15;;;;;;;11.73;10.50;;;18.20;99.90;;;;;;5032834;28;20089;-72
2023/06/18 00:16:41;;;;;;;13.85;11.25;;;18.20;99.90;;;;;;5028640;28;20732;-71
2023/06/18 00:19:06;;;;;;;14.60;10.25;;;18.20;99.90;;;;;;5027368;28;20976;-71
2023/06/18 00:21:32;;;;;;;11.80;10.10;;;18.20;99.90;;;;;;5027647;28;20041;-72
2023/06/18 00:23:58;;;;;;;12.55;10.23;;;18.30;99.90;;;;;;5017525;28;20041;-71
2023/06/18 00:26:25;;;;;;;13.63;9.50;;;18.30;99.90;;;;;;5027965;28;20086;-71
2023/06/18 00:28:54;;;;;;;14.07;9.88;;;18.30;99.90;;;;;;5033478;28;20028;-72
2023/06/18 00:31:19;;;;;;;14.93;10.13;;;18.30;99.90;;;;;;5030694;28;20043;-71
2023/06/18 00:33:45;;;;;;;13.13;10.98;;;18.20;99.90;;;;;;5033222;28;20480;-71
2023/06/18 00:36:12;;;;;;;11.48;10.27;;;18.20;99.90;;;;;;5024374;28;20074;-72
2023/06/18 00:38:43;;;;;;;13.43;9.68;;;18.20;99.90;;;;;;5028950;28;20022;-71
2023/06/18 00:41:09;;;;;;;12.35;9.20;;;18.30;99.90;;;;;;5025422;28;20086;-72
2023/06/18 00:43:35;;;;;;;15.48;9.77;;;18.30;99.90;;;;;;5036327;28;20569;-71
2023/06/18 00:46:01;;;;;;;13.45;9.57;;;18.40;99.90;;;;;;5035883;28;20051;-71
2023/06/18 00:48:28;;;;;;;13.77;9.63;;;18.50;99.90;;;;;;5024452;28;20369;-71
2023/06/18 00:50:54;;;;;;;13.10;9.20;;;18.50;99.90;;;;;;5031343;28;20028;-71
2023/06/18 00:53:20;;;;;;;11.18;9.80;;;18.50;99.90;;;;;;5034686;28;20682;-72
2023/06/18 00:55:50;;;;;;;10.35;8.88;;;18.60;99.90;;;;;;5022706;28;20025;-72
2023/06/18 00:58:16;;;;;;;12.38;9.30;;;18.60;99.90;;;;;;5030513;28;20043;-71
2023/06/18 01:00:43;;;;;;;10.85;9.73;;;18.60;99.90;;;;;;5027816;28;20151;-71
2023/06/18 01:03:20;;;;;;;10.57;9.05;;;18.70;99.90;;;;;;5026241;28;20503;-72
2023/06/18 01:05:53;;;;;;;12.18;9.77;;;18.70;99.90;;;;;;5027428;28;20037;-72
2023/06/18 01:08:23;;;;;;;13.68;9.00;;;18.70;99.90;;;;;;5019928;28;20511;-71
2023/06/18 01:11:02;;;;;;;10.95;8.80;;;18.70;99.90;;;;;;5018718;28;20532;-71
2023/06/18 01:13:32;;;;;;;11.68;9.07;;;18.70;99.90;;;;;;5035176;28;20037;-72
2023/06/18 01:16:03;;;;;;;10.38;9.20;;;18.60;99.90;;;;;;5035068;28;20029;-72
2023/06/18 01:18:35;;;;;;;12.00;9.80;;;18.60;99.90;;;;;;5028362;28;20108;-71
2023/06/18 01:21:13;;;;;;;10.43;9.40;;;18.60;99.90;;;;;;5031127;28;20353;-72
2023/06/18 01:23:50;;;;;;;11.73;9.45;;;18.60;99.90;;;;;;5033014;28;20039;-72
2023/06/18 01:26:20;;;;;;;12.60;8.45;;;18.60;99.90;;;;;;5015227;28;20150;-71
2023/06/18 01:28:49;;;;;;;10.87;8.20;;;18.50;99.90;;;;;;5036244;28;20078;-71
2023/06/18 01:31:16;;;;;;;9.57;8.18;;;18.50;99.90;;;;;;5032553;28;20492;-71
2023/06/18 01:33:41;;;;;;;10.98;8.30;;;18.50;99.90;;;;;;5006217;28;20159;-72
2023/06/18 01:36:11;;;;;;;10.60;8.05;;;18.40;99.90;;;;;;5033040;28;20500;-72
2023/06/18 01:38:46;;;;;;;9.33;8.33;;;18.40;99.90;;;;;;5035387;28;20022;-71
2023/06/18 01:41:18;;;;;;;10.32;7.93;;;18.40;99.90;;;;;;5034552;28;20359;-71
2023/06/18 01:43:57;;;;;;;10.88;8.45;;;18.50;99.90;;;;;;5027043;28;20029;-71
2023/06/18 01:46:26;;;;;;;11.43;8.95;;;18.50;99.90;;;;;;5018649;28;20033;-71
2023/06/18 01:48:59;;;;;;;9.40;8.40;;;18.40;99.90;;;;;;5028492;28;20029;-71
2023/06/18 01:51:27;;;;;;;12.73;9.55;;;18.40;99.90;;;;;;5011477;28;20056;-71
2023/06/18 01:53:56;;;;;;;9.60;8.52;;;18.50;99.90;;;;;;5017367;28;20078;-71
2023/06/18 01:56:23;;;;;;;11.32;9.07;;;18.40;99.90;;;;;;5035293;28;20051;-72
2023/06/18 01:58:50;;;;;;;10.13;8.82;;;18.50;99.90;;;;;;5034050;28;20843;-71
2023/06/18 02:01:15;;;;;;;10.63;8.80;;;18.40;99.90;;;;;;5034080;28;20115;-71
2023/06/18 02:03:41;;;;;;;9.98;7.80;;;18.40;99.90;;;;;;5035348;28;20111;-72
2023/06/18 02:06:07;;;;;;;9.25;8.35;;;18.40;99.90;;;;;;5036470;28;20060;-72
2023/06/18 02:08:33;;;;;;;10.50;8.85;;;18.30;99.90;;;;;;5037956;28;20025;-71
2023/06/18 02:10:59;;;;;;;13.13;8.88;;;18.30;99.90;;;;;;5033256;28;20496;-71
2023/06/18 02:13:24;;;;;;;9.95;8.75;;;18.30;99.90;;;;;;5058740;28;20224;-72
2023/06/18 02:15:50;;;;;;;10.35;8.82;;;18.40;99.90;;;;;;5025401;28;20046;-71
2023/06/18 02:18:16;;;;;;;10.07;8.73;;;18.30;99.90;;;;;;5026614;28;20358;-72
2023/06/18 02:20:42;;;;;;;10.15;8.63;;;18.30;99.90;;;;;;5032997;28;20124;-71
2023/06/18 02:23:08;;;;;;;9.82;8.82;;;18.40;99.90;;;;;;5029268;28;20029;-71
2023/06/18 02:25:35;;;;;;;12.98;8.55;;;18.40;99.90;;;;;;5011533;28;20068;-71
2023/06/18 02:28:01;;;;;;;13.73;8.77;;;18.40;99.90;;;;;;5021676;28;20035;-72
2023/06/18 02:30:29;;;;;;;10.10;9.00;;;18.40;99.90;;;;;;5034136;28;20041;-72
2023/06/18 02:32:55;;;;;;;12.52;9.48;;;18.50;99.90;;;;;;5012456;28;20020;-72
2023/06/18 02:35:21;;;;;;;9.65;8.68;;;18.50;99.90;;;;;;5029414;28;20029;-72
2023/06/18 02:37:47;;;;;;;13.18;10.02;;;18.40;99.90;;;;;;5034056;28;20051;-71
2023/06/18 02:40:14;;;;;;;12.27;10.27;;;18.40;99.90;;;;;;5030140;28;20033;-72
2023/06/18 02:42:47;;;;;;;13.65;9.98;;;18.40;99.90;;;;;;5024241;28;20025;-72
2023/06/18 02:45:18;;;;;;;11.25;10.02;;;18.40;99.90;;;;;;5007680;28;20065;-72
2023/06/18 02:47:45;;;;;;;13.73;9.55;;;18.40;99.90;;;;;;5022210;28;20128;-71
2023/06/18 02:50:11;;;;;;;11.52;8.93;;;18.30;99.90;;;;;;5036204;28;20100;-71
2023/06/18 02:52:37;;;;;;;11.30;9.07;;;18.30;99.90;;;;;;5013990;28;20106;-72
2023/06/18 02:55:04;;;;;;;11.93;8.98;;;18.30;99.90;;;;;;5035076;28;20579;-71
2023/06/18 02:57:29;;;;;;;10.35;9.15;;;18.30;99.90;;;;;;5030102;28;20040;-71
2023/06/18 02:59:55;;;;;;;12.80;8.70;;;18.30;99.90;;;;;;5013246;28;20043;-72
2023/06/18 03:02:21;;;;;;;9.48;8.35;;;18.30;99.90;;;;;;5033773;28;20048;-72
2023/06/18 03:04:47;;;;;;;8.55;7.65;;;18.30;99.90;;;;;;5027296;28;20045;-71
2023/06/18 03:07:12;;;;;;;9.18;7.95;;;18.20;99.90;;;;;;5037436;28;20033;-71
2023/06/18 03:09:38;;;;;;;9.30;8.40;;;18.20;99.90;;;;;;5035245;28;20036;-71
2023/06/18 03:12:04;;;;;;;8.43;7.63;;;18.20;99.90;;;;;;5033141;28;20036;-72
2023/06/18 03:14:29;;;;;;;9.77;8.57;;;18.20;99.90;;;;;;5030434;28;20109;-72
2023/06/18 03:16:56;;;;;;;11.35;8.98;;;18.10;99.90;;;;;;5036150;28;20162;-72
2023/06/18 03:19:22;;;;;;;10.85;8.50;;;18.10;99.90;;;;;;5016822;28;20056;-72
2023/06/18 03:21:48;;;;;;;13.63;9.00;;;18.10;99.90;;;;;;5035684;28;20032;-72
2023/06/18 03:24:14;;;;;;;10.88;8.90;;;18.10;99.90;;;;;;5033556;28;20150;-71
2023/06/18 03:26:41;;;;;;;13.73;8.95;;;18.20;99.90;;;;;;5028476;28;20025;-72
2023/06/18 03:29:07;;;;;;;11.23;8.48;;;18.20;99.90;;;;;;5030231;28;20025;-72
2023/06/18 03:31:33;;;;;;;11.63;8.65;;;18.20;99.90;;;;;;5018244;28;20022;-71
2023/06/18 03:34:01;;;;;;;14.23;9.05;;;18.30;99.90;;;;;;5006963;28;20248;-71
2023/06/18 03:36:28;;;;;;;11.88;8.43;;;18.30;99.90;;;;;;5018779;28;20140;-72
2023/06/18 03:38:55;;;;;;;9.32;7.97;;;18.30;99.90;;;;;;5037137;28;20535;-71
2023/06/18 03:41:21;;;;;;;11.88;8.40;;;18.30;99.90;;;;;;5032357;28;20573;-71
2023/06/18 03:43:46;;;;;;;9.40;8.43;;;18.30;99.90;;;;;;5033321;28;20087;-71
2023/06/18 03:46:12;;;;;;;11.52;8.55;;;18.20;99.90;;;;;;5034260;28;20021;-71
2023/06/18 03:48:38;;;;;;;9.68;8.23;;;18.20;99.90;;;;;;5012262;28;20025;-71
2023/06/18 03:51:04;;;;;;;9.93;8.73;;;18.10;99.90;;;;;;5033273;28;20033;-72
2023/06/18 03:53:30;;;;;;;8.88;7.57;;;18.10;99.90;;;;;;5036288;28;20060;-72
2023/06/18 03:55:56;;;;;;;10.18;7.78;;;18.10;99.90;;;;;;5015870;28;20418;-71
2023/06/18 03:58:22;;;;;;;11.70;9.25;;;18.00;99.90;;;;;;5032433;28;20029;-71
2023/06/18 04:00:47;;;;;;;9.20;8.30;;;18.00;99.90;;;;;;5036627;28;20108;-71
2023/06/18 04:03:13;;;;;;;9.02;8.13;;;18.00;99.90;;;;;;5032432;28;20204;-71
2023/06/18 04:05:39;;;;;;;10.02;9.00;;;18.00;99.90;;;;;;5016357;28;20104;-72
2023/06/18 04:08:04;;;;;;;11.95;9.23;;;18.00;99.90;;;;;;5033794;28;20538;-71
2023/06/18 04:10:30;;;;;;;11.30;9.18;;;18.00;99.90;;;;;;5035206;28;20487;-71
2023/06/18 04:12:56;;;;;;;10.07;8.80;;;18.00;99.90;;;;;;5029755;28;20108;-72
2023/06/18 04:15:21;;;;;;;10.98;9.45;;;17.90;99.90;;;;;;5034389;28;20048;-72
2023/06/18 04:17:47;;;;;;;11.40;9.20;;;17.90;99.90;;;;;;5023730;28;20064;-71
2023/06/18 04:20:13;;;;;;;9.93;8.57;;;17.90;99.90;;;;;;5031812;28;20135;-72
2023/06/18 04:22:38;;;;;;;11.05;9.15;;;17.90;99.90;;;;;;5031613;28;20052;-72
2023/06/18 04:25:05;;;;;;;10.23;9.23;;;18.00;99.90;;;;;;5033747;28;20057;-72
2023/06/18 04:27:31;;;;;;;12.25;9.98;;;18.10;99.90;;;;;;5030589;28;20551;-72
2023/06/18 04:29:57;;;;;;;9.93;8.93;;;18.10;99.90;;;;;;5030992;28;20048;-71
2023/06/18 04:32:22;;;;;;;11.25;9.82;;;18.20;99.90;;;;;;4983898;28;20102;-72
2023/06/18 04:34:48;;;;;;;10.88;9.70;;;18.20;99.90;;;;;;5028188;28;20028;-72
2023/06/18 04:37:13;;;;;;;13.68;9.77;;;18.20;99.90;;;;;;5026615;28;20111;-71
2023/06/18 04:39:39;;;;;;;10.82;9.73;;;18.20;99.90;;;;;;5030768;28;20033;-72
2023/06/18 04:42:05;;;;;;;13.90;10.05;;;18.30;99.90;;;;;;5033406;28;20369;-71
2023/06/18 04:44:30;;;;;;;11.55;9.23;;;18.30;99.90;;;;;;5016749;28;20171;-72
2023/06/18 04:46:56;;;;;;;10.95;9.52;;;18.40;99.90;;;;;;5025249;28;20033;-72
2023/06/18 04:49:22;;;;;;;11.63;10.10;;;18.40;99.90;;;;;;5034828;28;20041;-71
2023/06/18 04:51:47;;;;;;;10.68;9.27;;;18.40;99.90;;;;;;5034929;28;20044;-72
2023/06/18 04:54:13;;;;;;;11.80;9.20;;;18.50;99.90;;;;;;5013941;28;20033;-72
2023/06/18 04:56:39;;;;;;;10.75;9.63;;;18.60;99.90;;;;;;5035014;28;20029;-71
2023/06/18 04:59:05;;;;;;;16.20;10.30;;;18.70;99.90;;;;;;5026121;28;20567;-71
2023/06/18 05:01:31;;;;;;;11.30;9.70;;;18.80;99.90;;;;;;5032979;28;20926;-71
2023/06/18 05:03:57;;;;;;;14.52;10.30;;;18.90;99.90;;;;;;5030216;28;20040;-72
2023/06/18 05:06:22;;;;;;;14.82;10.50;;;18.90;99.90;;;;;;5028622;28;20036;-71
2023/06/18 05:08:49;;;;;;;12.10;10.20;;;19.00;99.90;;;;;;5032702;28;20031;-72
2023/06/18 05:11:16;;;;;;;13.43;11.10;;;19.00;99.90;;;;;;5033090;28;20483;-72
2023/06/18 05:13:42;;;;;;;10.93;9.60;;;19.10;99.90;;;;;;5026531;28;20115;-72
2023/06/18 05:16:07;;;;;;;12.43;10.40;;;19.20;99.90;;;;;;4997803;28;20038;-73
2023/06/18 05:18:36;;;;;;;13.05;9.75;;;19.30;99.90;;;;;;5021380;28;20068;-72
2023/06/18 05:21:02;;;;;;;16.52;10.32;;;19.40;99.90;;;;;;5027991;28;20036;-72
2023/06/18 05:23:28;;;;;;;11.50;9.98;;;19.50;99.90;;;;;;5029756;28;20032;-72
2023/06/18 05:25:54;;;;;;;13.75;10.75;;;19.60;99.90;;;;;;5028142;28;20129;-72
2023/06/18 05:28:19;;;;;;;10.73;9.43;;;19.60;99.90;;;;;;5008012;28;20451;-72
2023/06/18 05:30:46;;;;;;;14.63;10.05;;;19.70;99.90;;;;;;5034863;28;20376;-72
2023/06/18 05:33:13;;;;;;;14.93;11.20;;;19.80;99.90;;;;;;5024922;28;20025;-73
2023/06/18 05:35:38;;;;;;;12.50;10.82;;;19.90;99.90;;;;;;5012056;28;20029;-73
2023/06/18 05:38:04;;;;;;;12.63;9.45;;;20.00;99.90;;;;;;5035802;28;20065;-72
2023/06/18 05:40:30;;;;;;;11.30;10.20;;;20.10;99.90;;;;;;5016613;28;20734;-72
2023/06/18 05:42:56;;;;;;;13.40;11.05;;;20.20;99.90;;;;;;5032243;28;20472;-72
2023/06/18 05:45:21;;;;;;;14.05;9.90;;;20.30;99.90;;;;;;5013382;28;20072;-72
2023/06/18 05:47:47;;;;;;;12.30;10.07;;;20.40;99.90;;;;;;5029890;28;20530;-72
2023/06/18 05:50:13;;;;;;;11.88;10.57;;;20.60;99.90;;;;;;5031618;28;20135;-72
2023/06/18 05:52:40;;;;;;;12.40;9.63;;;20.70;99.90;;;;;;5025847;28;20057;-73
2023/06/18 05:55:08;;;;;;;12.80;10.23;;;20.70;99.90;;;;;;5029862;28;20180;-72
2023/06/18 05:57:34;;;;;;;13.93;9.65;;;20.90;99.90;;;;;;5036844;28;20122;-72
2023/06/18 06:00:00;;;;;;;11.38;9.68;;;20.90;99.90;;;;;;5030037;28;20029;-72
2023/06/18 06:02:26;;;;;;;13.02;9.45;;;21.10;99.90;;;;;;5020483;28;20033;-73
2023/06/18 06:04:51;;;;;;;10.20;8.98;;;21.10;99.90;;;;;;5022589;28;20857;-73
2023/06/18 06:07:17;;;;;;;10.48;9.43;;;21.10;99.90;;;;;;5009707;28;20029;-73
2023/06/18 06:09:42;;;;;;;11.50;9.30;;;21.10;99.90;;;;;;5013323;28;20033;-73
2023/06/18 06:12:09;;;;;;;13.95;8.75;;;21.20;99.90;;;;;;5031443;28;20112;-73
2023/06/18 06:14:34;;;;;;;11.38;9.38;;;21.30;99.90;;;;;;5019023;28;20040;-72
2023/06/18 06:17:00;;;;;;;9.88;8.88;;;21.30;99.90;;;;;;5004968;28;20650;-72
2023/06/18 06:19:26;;;;;;;12.15;8.40;;;21.40;99.90;;;;;;5012817;28;20496;-72
2023/06/18 06:21:52;;;;;;;11.30;8.85;;;21.50;99.90;;;;;;5014771;28;20796;-72
2023/06/18 06:24:17;;;;;;;11.52;9.30;;;21.70;99.90;;;;;;4995204;28;20044;-71
2023/06/18 06:26:43;;;;;;;8.85;7.95;;;21.70;99.90;;;;;;5007680;28;20034;-72
2023/06/18 06:29:09;;;;;;;10.77;8.43;;;21.70;99.90;;;;;;5017855;28;20029;-72
2023/06/18 06:31:34;;;;;;;10.68;8.02;;;21.90;99.90;;;;;;5021762;28;20030;-72
2023/06/18 06:34:00;;;;;;;9.43;8.20;;;22.10;99.90;;;;;;5014004;28;20631;-72
2023/06/18 06:36:26;;;;;;;8.95;8.07;;;22.30;99.90;;;;;;5030867;28;20147;-72
2023/06/18 06:38:51;;;;;;;9.35;8.25;;;22.40;99.90;;;;;;5029095;28;20112;-72
2023/06/18 06:41:17;;;;;;;13.07;8.38;;;22.60;99.90;;;;;;5029695;28;20036;-72
2023/06/18 06:43:43;;;;;;;9.73;8.70;;;22.90;99.90;;;;;;5029592;28;20504;-72
2023/06/18 06:46:09;;;;;;;10.90;8.88;;;23.10;99.90;;;;;;5027255;28;20504;-69
2023/06/18 06:48:34;;;;;;;9.93;8.48;;;23.20;99.90;;;;;;5026101;28;20478;-70
2023/06/18 06:51:01;;;;;;;12.15;8.30;;;23.30;99.90;;;;;;5037110;28;20029;-70
2023/06/18 06:53:27;;;;;;;9.13;7.65;;;23.30;99.90;;;;;;5024470;28;20052;-70
2023/06/18 06:55:52;;;;;;;14.13;8.15;;;23.30;99.90;;;;;;5028490;28;20024;-70
2023/06/18 06:58:18;;;;;;;10.18;8.43;;;23.40;99.90;;;;;;5031926;28;20520;-70
2023/06/18 07:00:44;;;;;;;10.30;7.75;;;23.40;99.90;;;;;;5034662;28;20534;-66
2023/06/18 07:03:09;;;;;;;11.15;8.15;;;23.30;99.30;;;;;;5032802;28;20033;-74
2023/06/18 07:05:35;;;;;;;11.43;7.35;;;23.70;99.50;;;;;;5035233;28;20052;-73
2023/06/18 07:08:02;;;;;;;10.52;7.60;;;23.80;98.30;;;;;;5034066;28;20037;-71
2023/06/18 07:10:28;;;;;;;10.18;7.47;;;24.10;98.50;;;;;;5031584;28;20033;-72
2023/06/18 07:12:53;;;;;;;11.77;7.50;;;24.20;98.10;;;;;;5034754;28;20037;-73
2023/06/18 07:15:19;;;;;;;9.88;8.60;;;24.30;98.10;;;;;;5028493;28;20040;-77
2023/06/18 07:17:45;;;;;;;11.25;8.02;;;24.20;97.40;;;;;;5031784;28;20029;-71
2023/06/18 07:20:11;;;;;;;10.43;7.22;;;24.20;97.70;;;;;;5030873;28;20032;-73
2023/06/18 07:22:36;;;;;;;11.63;7.68;;;24.20;97.80;;;;;;5007876;28;20029;-77
2023/06/18 07:25:03;;;;;;;10.70;7.15;;;24.20;97.60;;;;;;5019058;28;20437;-74
2023/06/18 07:27:28;;;;;;;11.82;7.95;;;24.50;97.60;;;;;;5016028;28;20117;-73
2023/06/18 07:29:55;;;;;;;11.52;7.32;;;24.80;97.00;;;;;;5001832;28;20037;-74
2023/06/18 07:32:21;;;;;;;13.32;8.18;;;25.20;96.30;;;;;;5015664;28;20109;-72
2023/06/18 07:34:46;;;;;;;12.40;8.40;;;25.40;95.90;;;;;;5015652;28;20177;-76
2023/06/18 07:37:12;;;;;;;13.02;8.68;;;25.80;95.00;;;;;;5016581;28;20111;-68
2023/06/18 07:39:38;;;;;;;12.55;8.43;;;25.40;94.80;;;;;;5018601;28;20040;-68
2023/06/18 07:42:03;;;;;;;11.77;7.95;;;25.10;95.50;;;;;;5035517;28;20040;-71
2023/06/18 07:44:29;;;;;;;9.63;7.30;;;25.50;96.10;;;;;;5034144;28;20041;-68
2023/06/18 07:46:55;;;;;;;12.95;8.20;;;25.80;95.40;;;;;;5035992;28;20378;-69
2023/06/18 07:49:24;;;;;;;10.40;7.47;;;26.10;94.40;;;;;;5028664;28;20457;-69
2023/06/18 07:51:50;;;;;;;11.32;7.82;;;26.40;93.90;;;;;;5033806;28;20025;-68
2023/06/18 07:54:15;;;;;;;9.40;6.90;;;27.60;93.00;;;;;;5020002;28;20027;-69
2023/06/18 07:56:41;;;;;;;10.63;6.28;;;29.30;90.80;;;;;;4991754;28;20048;-68
2023/06/18 07:59:07;;;;;;;9.60;5.90;;;31.40;86.90;;;;;;5030897;28;20094;-69
2023/06/18 08:01:33;;;;;;;7.97;5.35;;;32.90;79.90;;;;;;5031921;28;20037;-69
2023/06/18 08:03:59;;;;;;;9.68;5.97;;;34.40;76.00;;;;;;5000264;28;20059;-69
2023/06/18 08:06:25;;;;;;;9.50;5.88;;;35.10;72.80;;;;;;5024478;28;20028;-68
2023/06/18 08:08:50;;;;;;;9.00;5.53;;;35.80;67.90;;;;;;5020881;28;20025;-69
2023/06/18 08:11:17;;;;;;;10.52;6.38;;;36.00;66.50;;;;;;5018165;28;20055;-69
2023/06/18 08:13:43;;;;;;;8.68;5.68;;;36.30;64.60;;;;;;5012838;28;20045;-68
2023/06/18 08:16:09;;;;;;;9.02;6.10;;;36.90;63.80;;;;;;5029715;28;20132;-69
2023/06/18 08:18:35;;;;;;;8.23;6.30;;;37.70;60.80;;;;;;5024087;28;20546;-69
2023/06/18 08:21:01;;;;;;;5.80;4.85;;;37.90;58.60;;;;;;5026628;28;20029;-69
2023/06/18 08:23:27;;;;;;;6.22;5.30;;;38.50;59.60;;;;;;5021997;28;20102;-69
2023/06/18 08:25:52;;;;;;;6.60;4.93;;;38.60;58.70;;;;;;5032560;28;20044;-69
2023/06/18 08:28:18;;;;;;;7.60;5.82;;;39.00;57.60;;;;;;5029172;28;20104;-72
2023/06/18 08:30:43;;;;;;;9.27;6.30;;;39.00;54.40;;;;;;5033098;28;20063;-71
2023/06/18 08:33:10;;;;;;;8.63;6.45;;;39.10;53.40;;;;;;5030269;28;20021;-72
2023/06/18 08:35:37;;;;;;;10.85;6.63;;;39.20;51.80;;;;;;5024445;28;20405;-70
2023/06/18 08:38:03;;;;;;;8.75;7.07;;;38.70;52.70;;;;;;5022742;28;20481;-72
2023/06/18 08:40:35;;;;;;;10.57;6.95;;;38.00;52.10;;;;;;5032736;28;20099;-73
2023/06/18 08:43:01;;;;;;;9.18;5.85;;;37.30;53.80;;;;;;5015501;28;20044;-71
2023/06/18 08:45:27;;;;;;;9.70;6.50;;;37.30;56.30;;;;;;5030253;28;20072;-75
2023/06/18 08:47:58;;;;;;;9.18;6.45;;;37.40;54.90;;;;;;5015384;28;20556;-70
2023/06/18 08:50:27;;;;;;;15.48;6.78;;;37.90;53.90;;;;;;4999061;28;20391;-70
2023/06/18 08:52:58;;;;;;;12.13;7.07;;;38.60;52.50;;;;;;5024416;28;20055;-72
2023/06/18 08:55:25;;;;;;;11.60;6.63;;;39.10;51.20;;;;;;5030542;28;20126;-71
2023/06/18 08:58:13;;;;;;;11.70;6.65;;;39.50;52.20;;;;;;5029299;28;20033;-69
2023/06/18 09:00:39;;;;;;;12.32;6.50;;;39.90;50.00;;;;;;5025506;28;20377;-68
2023/06/18 09:03:05;;;;;;;10.35;5.90;;;40.50;49.70;;;;;;5009567;28;20031;-68
2023/06/18 09:05:32;;;;;;;11.88;6.70;;;41.20;48.60;;;;;;5029137;28;20345;-68
2023/06/18 09:07:58;;;;;;;9.18;6.63;;;41.90;46.60;;;;;;5026452;28;20034;-72
2023/06/18 09:10:25;;;;;;;9.73;6.40;;;42.70;47.00;;;;;;5022073;28;20564;-69
2023/06/18 09:12:51;;;;;;;6.55;5.53;;;42.80;44.50;;;;;;5033147;28;20112;-69
2023/06/18 09:15:16;;;;;;;8.98;6.28;;;43.00;45.00;;;;;;5033774;28;20208;-70
2023/06/18 09:17:50;;;;;;;9.63;5.80;;;43.70;44.00;;;;;;4995609;28;20029;-69
2023/06/18 09:20:19;;;;;;;10.05;6.03;;;43.90;42.00;;;;;;5033007;28;20032;-69
2023/06/18 09:22:46;;;;;;;11.83;6.23;;;44.50;42.60;;;;;;5031257;28;20029;-69
2023/06/18 09:25:18;;;;;;;8.75;5.65;;;44.50;39.80;;;;;;5032874;28;20530;-69
2023/06/18 09:27:44;;;;;;;11.20;5.60;;;44.90;39.70;;;;;;5019078;28;20029;-70
2023/06/18 09:30:18;;;;;;;10.45;6.05;;;45.20;38.70;;;;;;5024893;28;20040;-70
2023/06/18 09:32:47;;;;;;;10.10;7.00;;;45.10;37.70;;;;;;5034545;28;20550;-76
2023/06/18 09:35:18;;;;;;;7.53;5.32;;;44.40;37.30;;;;;;5032612;28;20515;-72
2023/06/18 09:37:44;;;;;;;6.05;5.18;;;44.40;39.20;;;;;;5035274;28;20036;-73
2023/06/18 09:40:17;;;;;;;9.10;4.72;;;44.30;38.10;;;;;;5032573;28;20033;-73
2023/06/18 09:42:44;;;;;;;8.82;5.68;;;44.70;39.20;;;;;;5034963;28;20029;-73
2023/06/18 09:45:10;;;;;;;6.40;4.07;;;45.60;36.60;;;;;;5012539;28;20049;-73
2023/06/18 09:47:41;;;;;;;7.13;4.70;;;45.80;34.80;;;;;;5012821;28;20033;-73
2023/06/18 09:50:10;;;;;;;5.95;4.70;;;45.60;34.70;;;;;;5035149;28;20025;-72
2023/06/18 09:52:46;;;;;;;5.97;4.15;;;45.00;33.80;;;;;;5035205;28;20948;-73
2023/06/18 09:55:32;;;;;;;5.35;4.32;;;45.60;34.50;;;;;;5032938;28;20036;-72
2023/06/18 09:57:59;;;;;;;5.30;4.57;;;46.60;32.90;;;;;;5032374;28;20056;-73
2023/06/18 10:00:25;;;;;;;6.68;3.92;;;46.60;30.90;;;;;;5028325;28;20025;-73
2023/06/18 10:02:52;;;;;;;5.97;4.35;;;46.80;31.60;;;;;;5033372;28;20033;-73
2023/06/18 10:05:17;;;;;;;5.50;3.70;;;44.90;32.80;;;;;;5036648;28;20562;-73
2023/06/18 10:07:46;;;;;;;4.75;3.35;;;45.60;32.30;;;;;;5034272;28;20025;-73
2023/06/18 10:10:16;;;;;;;4.95;3.30;;;46.20;32.50;;;;;;5031287;28;20048;-72
2023/06/18 10:12:43;;;;;;;4.57;3.22;;;46.30;32.90;;;;;;5029476;28;21060;-72
2023/06/18 10:15:12;;;;;;;5.40;3.40;;;45.40;31.60;;;;;;5007010;28;20029;-73
2023/06/18 10:17:44;;;;;;;3.70;3.25;;;43.30;30.90;;;;;;5013927;28;20487;-72
2023/06/18 10:20:13;;;;;;;6.85;4.13;;;41.70;34.60;;;;;;5032759;28;20128;-72
2023/06/18 10:22:48;;;;;;;4.93;3.50;;;41.10;33.50;;;;;;5034047;28;20021;-72
2023/06/18 10:25:15;;;;;;;5.95;3.75;;;40.20;37.90;;;;;;5020957;28;20051;-72
2023/06/18 10:27:41;;;;;;;6.47;3.72;;;38.80;36.60;;;;;;5017187;28;20039;-72
2023/06/18 10:30:08;;;;;;;6.85;3.75;;;37.70;37.80;;;;;;5014912;28;20041;-72
2023/06/18 10:32:35;;;;;;;3.60;2.97;;;36.90;38.70;;;;;;5030237;28;22148;-73
2023/06/18 10:35:05;;;;;;;4.18;2.80;;;38.20;40.50;;;;;;5020799;28;20052;-73
2023/06/18 10:37:31;;;;;;;5.45;3.08;;;39.80;36.00;;;;;;5027226;28;20031;-73
2023/06/18 10:39:57;;;;;;;5.72;3.70;;;40.60;35.10;;;;;;5022579;28;20033;-73
2023/06/18 10:42:23;;;;;;;6.65;3.10;;;40.70;35.60;;;;;;5025805;28;20029;-73
2023/06/18 10:44:49;;;;;;;4.50;3.20;;;40.10;35.30;;;;;;5003604;28;20029;-72
2023/06/18 10:47:26;;;;;;;7.93;4.30;;;40.80;35.10;;;;;;5015633;28;20048;-72
2023/06/18 10:50:06;;;;;;;5.05;2.88;;;40.80;34.60;;;;;;5018263;28;20499;-72
2023/06/18 10:52:36;;;;;;;6.57;4.50;;;40.70;35.40;;;;;;5014112;28;20076;-72
2023/06/18 10:55:06;;;;;;;7.82;5.00;;;39.40;37.80;;;;;;5015240;28;20033;-72
2023/06/18 10:57:41;;;;;;;5.03;3.60;;;38.00;38.60;;;;;;5001068;28;20063;-72
2023/06/18 11:00:15;;;;;;;6.85;4.03;;;38.10;40.50;;;;;;5020797;28;20017;-73
2023/06/18 11:02:41;;;;;;;7.78;5.63;;;38.60;39.80;;;;;;5004934;28;20744;-73
2023/06/18 11:05:13;;;;;;;6.53;4.70;;;38.30;41.10;;;;;;5010099;28;20071;-72
2023/06/18 11:07:40;;;;;;;7.03;5.80;;;38.40;41.60;;;;;;5016786;28;20021;-72
2023/06/18 11:10:06;;;;;;;6.63;5.25;;;38.60;39.60;;;;;;5002754;28;20029;-71
2023/06/18 11:12:36;;;;;;;7.35;5.70;;;37.20;41.40;;;;;;5017095;28;20372;-72
2023/06/18 11:15:21;;;;;;;5.70;5.13;;;35.80;41.90;;;;;;5020362;28;20384;-71
2023/06/18 11:17:55;;;;;;;6.65;5.25;;;34.90;46.70;;;;;;5020827;28;20568;-72
2023/06/18 11:20:23;;;;;;;6.72;6.05;;;33.20;48.30;;;;;;5028038;28;20061;-72
2023/06/18 11:22:55;;;;;;;6.20;5.53;;;32.00;50.40;;;;;;5021786;28;20550;-72
2023/06/18 11:25:21;;;;;;;8.32;6.72;;;31.00;54.60;;;;;;5013525;28;20068;-72
2023/06/18 11:27:50;;;;;;;8.57;7.68;;;30.00;56.90;;;;;;5005646;28;20040;-71
2023/06/18 11:32:51;;;;;;;9.35;7.90;;;28.50;66.90;;;;;;5282832;22;20090;-74
2023/06/18 11:35:17;;;;;;;9.90;8.25;;;27.60;72.30;;;;;;5038591;28;20470;-73
2023/06/18 11:37:44;;;;;;;10.90;9.05;;;26.70;78.60;;;;;;5036147;28;20036;-74
2023/06/18 11:40:10;;;;;;;11.27;9.05;;;26.10;83.60;;;;;;5042162;28;20108;-73
2023/06/18 11:42:46;;;;;;;11.93;10.50;;;25.60;87.20;;;;;;5039444;28;20058;-74
2023/06/18 11:45:12;;;;;;;9.95;8.40;;;24.80;90.90;;;;;;5041593;28;20036;-73
2023/06/18 11:47:43;;;;;;;11.25;9.88;;;24.40;93.10;;;;;;5040607;28;20036;-73
2023/06/18 11:50:10;;;;;;;11.02;9.65;;;24.20;93.50;;;;;;5044340;28;20044;-74
2023/06/18 11:52:36;;;;;;;10.45;9.35;;;24.00;94.20;;;;;;5038583;28;20032;-73
2023/06/18 11:55:04;;;;;;;12.77;9.95;;;23.80;94.50;;;;;;5042775;28;20024;-73
2023/06/18 11:57:30;;;;;;;13.23;10.52;;;23.40;95.30;;;;;;5041343;28;20452;-73
2023/06/18 11:59:55;;;;;;;14.38;9.45;;;23.50;95.30;;;;;;5039475;28;20097;-73
2023/06/18 12:02:26;;;;;;;12.93;9.63;;;23.30;96.30;;;;;;5037118;28;20033;-72
2023/06/18 12:04:52;;;;;;;11.95;9.88;;;23.40;96.80;;;;;;5037611;28;20384;-73
2023/06/18 12:07:24;;;;;;;12.93;10.27;;;23.10;96.50;;;;;;5035876;28;20450;-82
2023/06/18 12:09:52;;;;;;;13.57;10.88;;;22.90;97.00;;;;;;5047772;28;20028;-81
2023/06/18 12:12:51;;;;;;;12.95;11.38;;;22.90;97.60;;;;;;5033475;28;20024;-81
2023/06/18 12:15:35;;;;;;;12.20;9.65;;;22.90;98.20;;;;;;5028648;28;20032;-83
2023/06/18 12:18:07;;;;;;;16.50;12.40;;;23.00;98.30;;;;;;5045312;28;20435;-81
2023/06/18 12:20:34;;;;;;;15.85;11.57;;;23.20;97.80;;;;;;5048278;28;20033;-82
2023/06/18 12:23:02;;;;;;;16.85;11.70;;;23.00;97.70;;;;;;5024166;28;20029;-82
2023/06/18 12:25:30;;;;;;;13.80;11.13;;;23.00;97.30;;;;;;5039515;28;20045;-81
2023/06/18 12:27:58;;;;;;;14.70;12.15;;;22.90;97.70;;;;;;5066477;28;20909;-81
2023/06/18 12:30:38;;;;;;;13.85;11.68;;;23.00;97.70;;;;;;5063791;28;20032;-81
2023/06/18 12:33:08;;;;;;;12.95;11.15;;;22.90;97.70;;;;;;5063208;28;20094;-81
2023/06/18 12:35:35;;;;;;;12.98;10.40;;;22.80;98.30;;;;;;5066432;28;20032;-81
2023/06/18 12:38:09;;;;;;;15.52;12.00;;;22.90;97.90;;;;;;5066281;28;20039;-82
2023/06/18 12:40:58;;;;;;;13.23;11.40;;;22.60;97.20;;;;;;5061217;28;20024;-81
2023/06/18 12:43:24;;;;;;;17.02;9.98;;;22.60;98.20;;;;;;5066736;28;20051;-82